createdAt,value
2018-12-21T00:00:54.634Z,99.00
2018-12-21T00:02:57.420Z,99.20
2018-12-21T00:05:00.063Z,99.00
2018-12-21T00:07:02.687Z,98.80
2018-12-21T00:09:05.987Z,99.00
2018-12-21T00:11:09.605Z,99.20
2018-12-21T00:13:12.187Z,99.30
2018-12-21T00:15:15.670Z,99.10
2018-12-21T00:17:18.775Z,99.10
2018-12-21T00:19:21.534Z,98.90
2018-12-21T00:21:24.135Z,98.70
2018-12-21T00:23:26.743Z,98.80
2018-12-21T00:25:29.389Z,98.80
2018-12-21T00:27:32.316Z,98.90
2018-12-21T00:29:35.135Z,98.80
2018-12-21T00:31:43.392Z,99.00
2018-12-21T00:33:51.645Z,98.90
2018-12-21T00:35:59.951Z,98.70
2018-12-21T00:38:08.057Z,98.20
2018-12-21T00:40:16.366Z,98.40
2018-12-21T00:42:20.963Z,98.20
2018-12-21T00:44:27.411Z,98.20
2018-12-21T00:46:32.115Z,98.10
2018-12-21T00:48:34.834Z,97.70
2018-12-21T00:50:37.448Z,97.90
2018-12-21T00:52:40.039Z,97.70
2018-12-21T00:54:42.663Z,97.80
2018-12-21T00:56:45.339Z,97.80
2018-12-21T00:58:47.931Z,97.80
2018-12-21T01:00:50.562Z,97.40
2018-12-21T01:02:53.131Z,97.40
2018-12-21T01:04:56.059Z,97.20
2018-12-21T01:06:58.682Z,96.90
2018-12-21T01:09:01.247Z,97.10
2018-12-21T01:11:03.930Z,97.40
2018-12-21T01:13:06.590Z,97.50
2018-12-21T01:15:09.346Z,97.40
2018-12-21T01:17:12.176Z,97.60
2018-12-21T01:19:14.763Z,98.10
2018-12-21T01:21:17.489Z,98.20
2018-12-21T01:23:20.087Z,98.20
2018-12-21T01:25:22.697Z,98.30
2018-12-21T01:27:25.434Z,98.30
2018-12-21T01:29:28.013Z,98.20
2018-12-21T01:31:31.231Z,98.50
2018-12-21T01:33:33.921Z,98.20
2018-12-21T01:35:36.625Z,98.40
2018-12-21T01:37:39.225Z,98.40
2018-12-21T01:39:41.946Z,98.40
2018-12-21T01:41:44.683Z,98.60
2018-12-21T01:43:47.688Z,98.90
2018-12-21T01:45:50.301Z,98.90
2018-12-21T01:47:52.928Z,98.60
2018-12-21T01:49:56.343Z,98.80
2018-12-21T01:51:58.985Z,98.80
2018-12-21T01:54:01.591Z,98.60
2018-12-21T01:56:04.271Z,98.50
2018-12-21T01:58:06.882Z,98.60
2018-12-21T02:00:09.716Z,98.20
2018-12-21T02:02:12.490Z,98.20
2018-12-21T02:04:15.123Z,98.30
2018-12-21T02:06:17.728Z,98.70
2018-12-21T02:08:20.341Z,98.20
2018-12-21T02:10:23.013Z,98.20
2018-12-21T02:12:25.623Z,98.30
2018-12-21T02:14:28.235Z,98.30
2018-12-21T02:16:30.895Z,98.20
2018-12-21T02:18:33.527Z,97.90
2018-12-21T02:20:36.246Z,98.20
2018-12-21T02:22:38.854Z,98.20
2018-12-21T02:24:41.501Z,98.20
2018-12-21T02:26:44.123Z,98.40
2018-12-21T02:28:46.730Z,98.40
2018-12-21T02:30:49.323Z,98.20
2018-12-21T02:32:51.909Z,98.20
2018-12-21T02:34:54.561Z,98.20
2018-12-21T02:36:57.160Z,97.90
2018-12-21T02:39:03.118Z,97.80
2018-12-21T02:41:05.744Z,97.80
2018-12-21T02:43:08.348Z,98.10
2018-12-21T02:45:10.903Z,97.90
2018-12-21T02:47:13.751Z,97.80
2018-12-21T02:49:16.370Z,97.80
2018-12-21T02:51:18.955Z,97.70
2018-12-21T02:53:21.538Z,97.90
2018-12-21T02:55:24.107Z,98.00
2018-12-21T02:57:26.786Z,98.10
2018-12-21T02:59:29.409Z,97.70
2018-12-21T03:01:32.027Z,97.80
2018-12-21T03:03:34.586Z,97.60
2018-12-21T03:05:37.162Z,97.90
2018-12-21T03:07:39.795Z,97.80
2018-12-21T03:09:42.401Z,97.50
2018-12-21T03:11:45.023Z,97.40
2018-12-21T03:13:47.607Z,97.70
2018-12-21T03:15:50.221Z,97.40
2018-12-21T03:17:52.790Z,97.30
2018-12-21T03:19:55.370Z,97.80
2018-12-21T03:21:57.967Z,97.00
2018-12-21T03:24:00.591Z,97.20
2018-12-21T03:26:03.291Z,97.30
2018-12-21T03:28:05.877Z,97.30
2018-12-21T03:30:08.551Z,97.20
2018-12-21T03:32:11.181Z,97.40
2018-12-21T03:34:13.772Z,97.30
2018-12-21T03:36:16.377Z,97.20
2018-12-21T03:38:18.970Z,97.30
2018-12-21T03:40:21.553Z,97.00
2018-12-21T03:42:24.192Z,97.20
2018-12-21T03:44:26.817Z,97.30
2018-12-21T03:46:30.092Z,97.20
2018-12-21T03:48:32.668Z,96.90
2018-12-21T03:50:35.353Z,96.60
2018-12-21T03:52:38.030Z,96.40
2018-12-21T03:54:41.485Z,95.80
2018-12-21T03:56:44.090Z,96.10
2018-12-21T03:58:48.338Z,96.10
2018-12-21T04:00:50.919Z,96.10
2018-12-21T04:02:54.405Z,95.40
2018-12-21T04:04:57.648Z,95.50
2018-12-21T04:07:00.236Z,95.40
2018-12-21T04:09:02.914Z,95.30
2018-12-21T04:11:05.521Z,95.20
2018-12-21T04:13:08.116Z,94.90
2018-12-21T04:15:11.693Z,94.70
2018-12-21T04:17:14.334Z,94.80
2018-12-21T04:19:16.915Z,94.60
2018-12-21T04:21:20.185Z,94.50
2018-12-21T04:23:22.749Z,94.40
2018-12-21T04:25:25.355Z,93.90
2018-12-21T04:27:27.983Z,94.10
2018-12-21T04:29:30.556Z,94.80
2018-12-21T04:31:33.253Z,94.90
2018-12-21T04:33:36.057Z,94.80
2018-12-21T04:35:38.692Z,94.80
2018-12-21T04:37:41.297Z,95.20
2018-12-21T04:39:44.620Z,95.40
2018-12-21T04:41:47.254Z,96.30
2018-12-21T04:43:50.268Z,97.40
2018-12-21T04:45:52.888Z,98.50
2018-12-21T04:47:55.481Z,99.90
2018-12-21T04:49:58.060Z,99.90
2018-12-21T04:52:00.670Z,99.90
2018-12-21T04:54:03.347Z,99.90
2018-12-21T04:56:07.159Z,99.90
2018-12-21T04:58:09.790Z,99.90
2018-12-21T05:00:12.370Z,99.90
2018-12-21T05:02:15.279Z,99.90
2018-12-21T05:04:20.119Z,99.90
2018-12-21T05:06:22.441Z,99.90
2018-12-21T05:08:25.879Z,99.90
2018-12-21T05:10:28.476Z,99.90
2018-12-21T05:12:31.093Z,99.90
2018-12-21T05:14:33.682Z,99.90
2018-12-21T05:16:36.287Z,99.90
2018-12-21T05:18:38.928Z,99.90
2018-12-21T05:20:41.504Z,99.90
2018-12-21T05:22:52.058Z,99.90
2018-12-21T05:24:48.719Z,99.90
2018-12-21T05:26:51.453Z,99.90
2018-12-21T05:28:54.043Z,99.90
2018-12-21T05:30:56.628Z,99.90
2018-12-21T05:32:59.285Z,99.90
2018-12-21T05:35:01.852Z,99.90
2018-12-21T05:37:05.245Z,99.90
2018-12-21T05:39:07.837Z,99.90
2018-12-21T05:41:10.393Z,99.90
2018-12-21T05:43:13.024Z,99.90
2018-12-21T05:45:15.650Z,99.90
2018-12-21T05:47:18.328Z,99.90
2018-12-21T05:49:20.925Z,99.90
2018-12-21T05:51:23.523Z,99.90
2018-12-21T05:53:26.406Z,99.90
2018-12-21T05:55:28.963Z,99.90
2018-12-21T05:57:31.816Z,99.90
2018-12-21T05:59:34.396Z,99.90
2018-12-21T06:01:37.033Z,99.90
2018-12-21T06:03:39.631Z,99.90
2018-12-21T06:05:42.706Z,99.90
2018-12-21T06:07:45.332Z,99.90
2018-12-21T06:09:47.951Z,99.90
2018-12-21T06:11:50.558Z,99.90
2018-12-21T06:13:53.897Z,99.90
2018-12-21T06:15:56.515Z,99.90
2018-12-21T06:17:59.215Z,99.90
2018-12-21T06:20:01.770Z,99.90
2018-12-21T06:22:04.426Z,99.90
2018-12-21T06:24:07.045Z,99.90
2018-12-21T06:26:10.535Z,99.90
2018-12-21T06:28:13.239Z,99.90
2018-12-21T06:30:15.866Z,99.90
2018-12-21T06:32:18.477Z,99.90
2018-12-21T06:34:21.117Z,99.90
2018-12-21T06:36:23.769Z,99.90
2018-12-21T06:38:27.143Z,99.90
2018-12-21T06:40:29.780Z,99.90
2018-12-21T06:42:32.658Z,99.90
2018-12-21T06:44:36.136Z,99.90
2018-12-21T06:46:38.711Z,99.90
2018-12-21T06:48:41.326Z,99.90
2018-12-21T06:50:43.892Z,99.90
2018-12-21T06:52:46.541Z,99.90
2018-12-21T06:54:49.136Z,99.90
2018-12-21T06:56:51.707Z,99.90
2018-12-21T06:58:56.518Z,99.90
2018-12-21T07:01:00.700Z,99.90
2018-12-21T07:03:03.615Z,99.90
2018-12-21T07:05:06.930Z,99.90
2018-12-21T07:07:09.982Z,99.90
2018-12-21T07:09:12.673Z,99.90
2018-12-21T07:11:16.888Z,99.90
2018-12-21T07:13:19.521Z,99.90
2018-12-21T07:15:22.263Z,99.90
2018-12-21T07:17:26.303Z,99.90
2018-12-21T07:19:28.942Z,99.90
2018-12-21T07:21:31.520Z,99.90
2018-12-21T07:23:34.177Z,99.90
2018-12-21T07:25:36.776Z,99.90
2018-12-21T07:27:39.380Z,99.90
2018-12-21T07:29:42.011Z,99.90
2018-12-21T07:31:44.632Z,99.90
2018-12-21T07:33:47.264Z,99.90
2018-12-21T07:35:49.885Z,99.90
2018-12-21T07:37:52.533Z,99.90
2018-12-21T07:39:55.249Z,99.90
2018-12-21T07:41:59.654Z,99.90
2018-12-21T07:44:02.656Z,99.90
2018-12-21T07:46:05.453Z,99.90
2018-12-21T07:48:08.228Z,99.90
2018-12-21T07:50:11.032Z,99.90
2018-12-21T07:52:15.256Z,99.90
2018-12-21T07:54:18.132Z,99.90
2018-12-21T07:56:20.779Z,99.90
2018-12-21T07:58:23.464Z,99.90
2018-12-21T08:00:26.242Z,99.90
2018-12-21T08:02:28.910Z,99.90
2018-12-21T08:04:31.733Z,99.90
2018-12-21T08:06:35.021Z,99.90
2018-12-21T08:08:37.928Z,99.90
2018-12-21T08:10:40.739Z,99.90
2018-12-21T08:12:43.429Z,99.90
2018-12-21T08:14:46.262Z,99.90
2018-12-21T08:16:48.937Z,99.90
2018-12-21T08:18:51.889Z,99.90
2018-12-21T08:20:54.659Z,99.90
2018-12-21T08:22:57.330Z,99.90
2018-12-21T08:25:00.959Z,99.90
2018-12-21T08:27:03.806Z,99.90
2018-12-21T08:29:06.729Z,99.90
2018-12-21T08:31:11.230Z,99.90
2018-12-21T08:33:14.066Z,99.90
2018-12-21T08:35:17.833Z,99.90
2018-12-21T08:37:21.608Z,99.90
2018-12-21T08:39:24.365Z,99.90
2018-12-21T08:41:27.205Z,99.90
2018-12-21T08:43:29.894Z,99.90
2018-12-21T08:45:32.714Z,99.90
2018-12-21T08:47:35.443Z,99.90
2018-12-21T08:49:38.383Z,99.90
2018-12-21T08:51:41.058Z,99.90
2018-12-21T08:53:43.786Z,99.90
2018-12-21T08:55:46.671Z,99.90
2018-12-21T08:57:49.481Z,99.90
2018-12-21T08:59:53.173Z,99.90
2018-12-21T09:01:55.954Z,99.90
2018-12-21T09:03:58.680Z,99.90
2018-12-21T09:06:01.524Z,99.90
2018-12-21T09:08:04.210Z,99.90
2018-12-21T09:10:08.819Z,99.90
2018-12-21T09:12:11.548Z,99.90
2018-12-21T09:14:14.687Z,99.90
2018-12-21T09:16:17.608Z,99.90
2018-12-21T09:18:20.380Z,99.90
2018-12-21T09:20:23.135Z,99.90
2018-12-21T09:22:25.864Z,99.90
2018-12-21T09:24:28.546Z,99.90
2018-12-21T09:26:31.438Z,99.90
2018-12-21T09:28:34.333Z,99.90
2018-12-21T09:30:37.391Z,99.90
2018-12-21T09:32:40.146Z,99.90
2018-12-21T09:34:42.867Z,99.90
2018-12-21T09:36:45.759Z,99.90
2018-12-21T09:38:48.632Z,99.90
2018-12-21T09:40:51.465Z,99.90
2018-12-21T09:42:54.307Z,99.90
2018-12-21T09:44:57.143Z,99.90
2018-12-21T09:46:59.841Z,99.90
2018-12-21T09:49:02.602Z,99.90
2018-12-21T09:51:05.356Z,99.90
2018-12-21T09:53:08.031Z,99.90
2018-12-21T09:55:10.894Z,99.90
2018-12-21T09:57:13.552Z,99.90
2018-12-21T09:59:16.225Z,99.90
2018-12-21T10:01:18.899Z,99.90
2018-12-21T10:03:21.638Z,99.90
2018-12-21T10:05:25.025Z,99.90
2018-12-21T10:07:27.919Z,99.90
2018-12-21T10:09:30.735Z,99.90
2018-12-21T10:11:33.401Z,99.90
2018-12-21T10:13:36.035Z,99.90
2018-12-21T10:15:39.877Z,99.90
2018-12-21T10:17:42.603Z,99.90
2018-12-21T10:19:45.307Z,99.90
2018-12-21T10:21:48.062Z,99.90
2018-12-21T10:23:50.785Z,99.90
2018-12-21T10:25:54.029Z,99.90
2018-12-21T10:27:56.666Z,99.90
2018-12-21T10:29:59.522Z,99.90
2018-12-21T10:32:02.609Z,99.90
2018-12-21T10:34:05.335Z,99.90
2018-12-21T10:36:08.024Z,99.90
2018-12-21T10:38:10.927Z,99.90
2018-12-21T10:40:13.974Z,99.90
2018-12-21T10:42:17.050Z,99.90
2018-12-21T10:44:19.785Z,99.90
2018-12-21T10:46:22.549Z,99.90
2018-12-21T10:48:25.204Z,99.90
2018-12-21T10:50:29.163Z,99.90
2018-12-21T10:52:32.827Z,99.90
2018-12-21T10:54:35.679Z,99.90
2018-12-21T10:56:38.453Z,99.90
2018-12-21T10:58:41.105Z,99.90
2018-12-21T11:00:43.762Z,99.90
2018-12-21T11:02:46.363Z,99.90
2018-12-21T11:04:49.031Z,99.90
2018-12-21T11:06:52.630Z,99.90
2018-12-21T11:08:55.315Z,99.90
2018-12-21T11:10:57.956Z,99.90
2018-12-21T11:13:00.558Z,99.90
2018-12-21T11:15:04.629Z,99.90
2018-12-21T11:17:07.318Z,99.90
2018-12-21T11:19:09.988Z,99.90
2018-12-21T11:21:12.595Z,99.90
2018-12-21T11:23:15.269Z,99.90
2018-12-21T11:25:17.892Z,99.90
2018-12-21T11:27:20.633Z,99.90
2018-12-21T11:29:23.447Z,99.90
2018-12-21T11:31:26.059Z,99.90
2018-12-21T11:33:28.692Z,99.90
2018-12-21T11:35:31.358Z,99.90
2018-12-21T11:37:34.731Z,99.90
2018-12-21T11:39:37.375Z,99.90
2018-12-21T11:41:41.720Z,99.90
2018-12-21T11:43:44.389Z,99.90
2018-12-21T11:45:46.991Z,99.90
2018-12-21T11:47:49.640Z,99.90
2018-12-21T11:49:52.898Z,99.90
2018-12-21T11:51:55.552Z,99.90
2018-12-21T11:53:58.185Z,99.90
2018-12-21T11:56:00.767Z,99.90
2018-12-21T11:58:03.386Z,99.90
2018-12-21T12:00:08.622Z,99.90
2018-12-21T12:02:19.328Z,99.90
2018-12-21T12:04:16.590Z,99.90
2018-12-21T12:06:19.323Z,99.90
2018-12-21T12:08:21.971Z,99.90
2018-12-21T12:10:25.475Z,99.90
2018-12-21T12:12:28.106Z,99.90
2018-12-21T12:14:30.739Z,99.90
2018-12-21T12:16:33.370Z,99.90
2018-12-21T12:18:36.048Z,99.90
2018-12-21T12:20:39.304Z,99.90
2018-12-21T12:22:42.256Z,99.90
2018-12-21T12:24:52.582Z,99.90
2018-12-21T12:26:50.327Z,99.90
2018-12-21T12:28:52.991Z,99.90
2018-12-21T12:30:55.554Z,99.90
2018-12-21T12:32:58.165Z,99.90
2018-12-21T12:35:00.740Z,99.90
2018-12-21T12:37:03.323Z,99.90
2018-12-21T12:39:06.823Z,99.90
2018-12-21T12:41:09.416Z,99.90
2018-12-21T12:43:13.585Z,99.90
2018-12-21T12:45:16.206Z,99.90
2018-12-21T12:47:18.918Z,99.90
2018-12-21T12:49:22.070Z,99.90
2018-12-21T12:51:24.705Z,99.90
2018-12-21T12:53:27.406Z,99.90
2018-12-21T12:55:30.034Z,99.90
2018-12-21T12:57:32.602Z,99.90
2018-12-21T12:59:35.345Z,99.90
2018-12-21T13:01:37.959Z,99.90
2018-12-21T13:03:40.555Z,99.90
2018-12-21T13:05:43.167Z,99.90
2018-12-21T13:07:46.461Z,99.90
2018-12-21T13:09:49.073Z,99.90
2018-12-21T13:11:51.666Z,99.90
2018-12-21T13:13:54.971Z,99.90
2018-12-21T13:15:57.643Z,99.90
2018-12-21T13:18:00.367Z,99.90
2018-12-21T13:20:07.954Z,99.90
2018-12-21T13:22:13.410Z,99.90
2018-12-21T13:24:20.502Z,99.90
2018-12-21T13:26:25.256Z,99.90
2018-12-21T13:28:27.986Z,99.90
2018-12-21T13:33:10.115Z,99.90
2018-12-21T13:35:13.538Z,99.90
2018-12-21T13:37:18.456Z,99.90
2018-12-21T13:39:21.439Z,99.90
2018-12-21T13:41:25.588Z,99.90
2018-12-21T13:43:29.273Z,99.90
2018-12-21T13:45:34.323Z,99.90
2018-12-21T13:47:38.031Z,99.90
2018-12-21T13:49:42.787Z,99.90
2018-12-21T13:51:47.285Z,99.90
2018-12-21T13:53:52.499Z,99.90
2018-12-21T13:56:00.072Z,99.90
2018-12-21T13:58:04.789Z,99.90
2018-12-21T14:00:10.778Z,99.90
2018-12-21T14:02:14.800Z,99.90
2018-12-21T14:04:18.247Z,99.90
2018-12-21T14:06:22.998Z,99.90
2018-12-21T14:08:25.925Z,99.90
2018-12-21T14:10:28.559Z,99.90
2018-12-21T14:12:31.472Z,99.90
2018-12-21T14:14:35.554Z,99.90
2018-12-21T14:16:38.404Z,99.90
2018-12-21T14:18:40.982Z,99.90
2018-12-21T14:20:43.712Z,99.90
2018-12-21T14:22:46.731Z,99.90
2018-12-21T14:24:49.942Z,99.90
2018-12-21T14:26:52.587Z,99.90
2018-12-21T14:28:55.386Z,99.90
2018-12-21T14:30:58.373Z,99.90
2018-12-21T14:33:01.050Z,99.90
2018-12-21T14:35:04.390Z,99.90
2018-12-21T14:37:07.253Z,99.90
2018-12-21T14:39:09.872Z,99.90
2018-12-21T14:41:12.452Z,99.90
2018-12-21T14:43:15.026Z,99.90
2018-12-21T14:45:17.711Z,99.90
2018-12-21T14:47:20.275Z,99.90
2018-12-21T14:49:22.958Z,99.90
2018-12-21T14:51:25.528Z,99.90
2018-12-21T14:53:28.127Z,99.90
2018-12-21T14:55:37.440Z,99.90
2018-12-21T14:57:36.942Z,99.90
2018-12-21T14:59:39.598Z,99.90
2018-12-21T15:01:42.189Z,99.90
2018-12-21T15:03:44.795Z,99.90
2018-12-21T15:05:47.412Z,99.90
2018-12-21T15:07:50.085Z,99.90
2018-12-21T15:09:53.044Z,99.90
2018-12-21T15:11:55.626Z,99.90
2018-12-21T15:13:58.230Z,99.90
2018-12-21T15:16:00.842Z,99.90
2018-12-21T15:18:03.411Z,99.90
2018-12-21T15:20:07.427Z,99.90
2018-12-21T15:22:10.023Z,99.90
2018-12-21T15:24:12.639Z,99.90
2018-12-21T15:26:15.254Z,99.90
2018-12-21T15:28:17.996Z,99.90
2018-12-21T15:30:20.603Z,99.90
2018-12-21T15:32:23.203Z,99.90
2018-12-21T15:34:26.273Z,99.90
2018-12-21T15:36:28.941Z,99.90
2018-12-21T15:38:31.763Z,99.90
2018-12-21T15:40:34.534Z,99.90
2018-12-21T15:42:37.098Z,99.90
2018-12-21T15:44:39.744Z,99.90
2018-12-21T15:46:42.387Z,99.90
2018-12-21T15:48:45.288Z,99.90
2018-12-21T15:50:48.751Z,99.90
2018-12-21T15:52:52.211Z,99.90
2018-12-21T15:54:54.931Z,99.90
2018-12-21T15:56:58.331Z,99.90
2018-12-21T15:59:00.963Z,99.90
2018-12-21T16:01:03.852Z,99.90
2018-12-21T16:03:06.582Z,99.90
2018-12-21T16:05:09.182Z,99.90
2018-12-21T16:07:11.851Z,99.90
2018-12-21T16:09:14.459Z,99.90
2018-12-21T16:11:17.119Z,99.90
2018-12-21T16:13:19.763Z,99.90
2018-12-21T16:15:22.482Z,99.90
2018-12-21T16:17:25.156Z,99.90
2018-12-21T16:19:28.020Z,99.90
2018-12-21T16:21:30.675Z,99.90
2018-12-21T16:23:33.502Z,99.90
2018-12-21T16:25:36.353Z,99.90
2018-12-21T16:27:39.977Z,99.90
2018-12-21T16:29:42.940Z,99.90
2018-12-21T16:31:46.008Z,99.90
2018-12-21T16:33:48.804Z,99.90
2018-12-21T16:35:51.571Z,99.90
2018-12-21T16:37:54.600Z,99.90
2018-12-21T16:39:57.216Z,99.90
2018-12-21T16:42:00.028Z,99.90
2018-12-21T16:44:02.687Z,99.90
2018-12-21T16:46:05.367Z,99.90
2018-12-21T16:48:07.957Z,99.90
2018-12-21T16:50:10.827Z,99.90
2018-12-21T16:52:13.431Z,99.90
2018-12-21T16:54:16.186Z,99.90
2018-12-21T16:56:18.833Z,99.90
2018-12-21T16:58:21.436Z,99.90
2018-12-21T17:00:24.125Z,99.90
2018-12-21T17:02:26.799Z,99.90
2018-12-21T17:04:29.454Z,99.90
2018-12-21T17:06:32.326Z,99.90
2018-12-21T17:08:35.037Z,99.90
2018-12-21T17:10:37.637Z,99.90
2018-12-21T17:12:40.505Z,99.90
2018-12-21T17:14:43.199Z,99.90
2018-12-21T17:16:45.869Z,99.90
2018-12-21T17:18:48.514Z,99.90
2018-12-21T17:20:51.165Z,99.90
2018-12-21T17:22:54.829Z,99.90
2018-12-21T17:24:57.433Z,99.90
2018-12-21T17:27:00.057Z,99.90
2018-12-21T17:29:02.648Z,99.90
2018-12-21T17:31:05.273Z,99.90
2018-12-21T17:33:07.897Z,99.90
2018-12-21T17:35:10.527Z,99.90
2018-12-21T17:37:14.044Z,99.90
2018-12-21T17:39:16.623Z,99.90
2018-12-21T17:41:19.201Z,99.90
2018-12-21T17:43:22.506Z,99.90
2018-12-21T17:45:25.144Z,99.90
2018-12-21T17:47:28.020Z,99.90
2018-12-21T17:49:30.622Z,99.90
2018-12-21T17:51:33.283Z,99.90
2018-12-21T17:53:35.993Z,99.90
2018-12-21T17:55:40.388Z,99.90
2018-12-21T17:57:43.571Z,99.90
2018-12-21T17:59:46.171Z,99.90
2018-12-21T18:01:48.776Z,99.90
2018-12-21T18:03:52.400Z,99.90
2018-12-21T18:05:55.011Z,99.90
2018-12-21T18:07:58.163Z,99.90
2018-12-21T18:10:00.738Z,99.90
2018-12-21T18:12:03.340Z,99.90
2018-12-21T18:14:05.991Z,99.90
2018-12-21T18:16:08.564Z,99.90
2018-12-21T18:18:11.233Z,99.90
2018-12-21T18:20:13.814Z,99.90
2018-12-21T18:22:16.459Z,99.90
2018-12-21T18:24:20.523Z,99.90
2018-12-21T18:26:23.616Z,99.90
2018-12-21T18:28:27.081Z,99.90
2018-12-21T18:30:30.576Z,99.90
2018-12-21T18:32:33.216Z,99.90
2018-12-21T18:34:35.828Z,99.90
2018-12-21T18:36:38.895Z,99.90
2018-12-21T18:38:42.036Z,99.90
2018-12-21T18:40:44.676Z,99.90
2018-12-21T18:42:47.356Z,99.90
2018-12-21T18:44:51.336Z,99.90
2018-12-21T18:46:53.910Z,99.90
2018-12-21T18:48:57.868Z,99.90
2018-12-21T18:51:00.485Z,99.90
2018-12-21T18:53:03.948Z,99.90
2018-12-21T18:55:11.434Z,99.90
2018-12-21T18:57:14.405Z,99.90
2018-12-21T18:59:17.040Z,99.90
2018-12-21T19:01:19.684Z,99.90
2018-12-21T19:03:22.315Z,99.90
2018-12-21T19:05:25.325Z,99.90
2018-12-21T19:07:27.972Z,99.90
2018-12-21T19:09:30.590Z,99.90
2018-12-21T19:11:33.218Z,99.90
2018-12-21T19:13:35.951Z,99.90
2018-12-21T19:15:38.685Z,99.90
2018-12-21T19:17:41.279Z,99.90
2018-12-21T19:19:43.935Z,99.90
2018-12-21T19:21:47.270Z,99.90
2018-12-21T19:23:49.998Z,99.90
2018-12-21T19:25:52.599Z,99.90
2018-12-21T19:27:55.202Z,99.90
2018-12-21T19:29:57.952Z,99.90
2018-12-21T19:32:01.395Z,99.90
2018-12-21T19:34:04.116Z,99.90
2018-12-21T19:36:06.792Z,99.90
2018-12-21T19:38:09.562Z,99.90
2018-12-21T19:40:12.275Z,99.90
2018-12-21T19:42:14.951Z,99.90
2018-12-21T19:44:17.602Z,99.90
2018-12-21T19:46:20.198Z,99.90
2018-12-21T19:48:23.559Z,99.90
2018-12-21T19:50:27.026Z,99.90
2018-12-21T19:52:29.629Z,99.90
2018-12-21T19:54:32.333Z,99.90
2018-12-21T19:56:38.671Z,99.90
2018-12-21T19:58:41.296Z,99.90
2018-12-21T20:00:44.193Z,99.90
2018-12-21T20:02:46.824Z,99.90
2018-12-21T20:04:49.472Z,99.90
2018-12-21T20:06:52.565Z,99.90
2018-12-21T20:08:55.175Z,99.90
2018-12-21T20:10:57.847Z,99.90
2018-12-21T20:13:00.486Z,99.90
2018-12-21T20:15:03.304Z,99.90
2018-12-21T20:17:05.901Z,99.90
2018-12-21T20:19:08.544Z,99.90
2018-12-21T20:21:11.234Z,99.90
2018-12-21T20:23:13.866Z,99.90
2018-12-21T20:25:16.481Z,99.90
2018-12-21T20:27:19.082Z,99.90
2018-12-21T20:29:21.665Z,99.90
2018-12-21T20:31:24.263Z,99.90
2018-12-21T20:33:26.901Z,99.90
2018-12-21T20:35:29.557Z,99.90
2018-12-21T20:37:32.284Z,99.90
2018-12-21T20:39:34.923Z,99.90
2018-12-21T20:41:37.651Z,99.90
2018-12-21T20:43:40.433Z,99.90
2018-12-21T20:45:43.100Z,99.90
2018-12-21T20:47:45.706Z,99.90
2018-12-21T20:49:48.301Z,99.90
2018-12-21T20:51:50.927Z,99.90
2018-12-21T20:53:53.503Z,99.90
2018-12-21T20:55:56.152Z,99.90
2018-12-21T20:57:59.061Z,99.90
2018-12-21T21:00:01.671Z,99.90
2018-12-21T21:02:04.390Z,99.90
2018-12-21T21:04:06.988Z,99.90
2018-12-21T21:06:09.617Z,99.90
2018-12-21T21:08:13.236Z,99.90
2018-12-21T21:10:15.859Z,99.90
2018-12-21T21:12:18.470Z,99.90
2018-12-21T21:14:21.116Z,99.90
2018-12-21T21:16:25.331Z,99.90
2018-12-21T21:18:28.121Z,99.90
2018-12-21T21:20:31.842Z,99.90
2018-12-21T21:22:34.763Z,99.90
2018-12-21T21:24:41.464Z,99.90
2018-12-21T21:26:44.553Z,99.90
2018-12-21T21:28:47.196Z,99.90
2018-12-21T21:30:49.839Z,99.90
2018-12-21T21:32:52.482Z,99.90
2018-12-21T21:34:55.119Z,99.90
2018-12-21T21:36:57.865Z,99.90
2018-12-21T21:39:01.112Z,99.90
2018-12-21T21:41:03.814Z,99.90
2018-12-21T21:43:06.962Z,99.90
2018-12-21T21:45:10.040Z,99.90
2018-12-21T21:47:12.799Z,99.90
2018-12-21T21:49:15.367Z,99.90
2018-12-21T21:51:19.208Z,99.90
2018-12-21T21:53:21.918Z,99.90
2018-12-21T21:55:24.526Z,99.90
2018-12-21T21:57:27.238Z,99.90
2018-12-21T21:59:29.841Z,99.90
2018-12-21T22:01:32.501Z,99.90
2018-12-21T22:03:35.295Z,99.90
2018-12-21T22:05:38.188Z,99.90
2018-12-21T22:07:40.912Z,99.90
2018-12-21T22:09:43.631Z,99.90
2018-12-21T22:11:46.311Z,99.90
2018-12-21T22:13:48.897Z,99.90
2018-12-21T22:15:51.847Z,99.90
2018-12-21T22:17:55.151Z,99.90
2018-12-21T22:19:59.090Z,99.90
2018-12-21T22:22:01.745Z,99.90
2018-12-21T22:24:04.356Z,99.90
2018-12-21T22:26:07.015Z,99.90
2018-12-21T22:28:09.636Z,99.90
2018-12-21T22:30:12.245Z,99.90
2018-12-21T22:32:14.903Z,99.90
2018-12-21T22:34:17.648Z,99.90
2018-12-21T22:36:20.312Z,99.90
2018-12-21T22:38:22.959Z,99.90
2018-12-21T22:40:25.706Z,99.90
2018-12-21T22:42:28.645Z,99.90
2018-12-21T22:44:31.347Z,99.90
2018-12-21T22:46:33.955Z,99.90
2018-12-21T22:48:36.563Z,99.90
2018-12-21T22:50:39.155Z,99.90
2018-12-21T22:52:41.793Z,99.90
2018-12-21T22:54:44.440Z,99.90
2018-12-21T22:56:47.023Z,99.90
2018-12-21T22:58:49.714Z,99.90
2018-12-21T23:00:52.377Z,99.90
2018-12-21T23:02:55.003Z,99.90
2018-12-21T23:04:57.645Z,99.90
2018-12-21T23:07:00.357Z,99.90
2018-12-21T23:09:03.095Z,99.90
2018-12-21T23:11:05.779Z,99.90
2018-12-21T23:13:08.501Z,99.90
2018-12-21T23:15:11.161Z,99.90
2018-12-21T23:17:13.765Z,99.90
2018-12-21T23:19:16.382Z,99.90
2018-12-21T23:21:18.950Z,99.90
2018-12-21T23:23:22.805Z,99.90
2018-12-21T23:25:25.537Z,99.90
2018-12-21T23:27:28.207Z,99.90
2018-12-21T23:29:30.881Z,99.90
2018-12-21T23:31:33.533Z,99.90
2018-12-21T23:33:36.276Z,99.90
2018-12-21T23:35:38.903Z,99.90
2018-12-21T23:37:41.483Z,99.90
2018-12-21T23:39:44.126Z,99.90
2018-12-21T23:41:46.800Z,99.90
2018-12-21T23:43:49.521Z,99.90
2018-12-21T23:45:52.133Z,99.90
2018-12-21T23:47:54.753Z,99.90
2018-12-21T23:49:57.403Z,99.90
2018-12-21T23:52:00.241Z,99.90
2018-12-21T23:54:02.930Z,99.90
2018-12-21T23:56:12.096Z,99.90
2018-12-21T23:58:13.870Z,99.90
